Main page
METAR-TAF:

METAR-TAF

Airports :

Tashkent International Airport

Tashkent, Uzbekistan

latitude: 41-16N, longitude: 069-16E, elevation: 489 m

Current weather observation

The report was made 23 minutes ago, at 04:00 UTC
Wind 4 kt from the South/Southeast, varying between East/Southeast and South/Southwest
Temperature 4°C
Humidity 87%
Pressure 1034 hPa
Visibility: 5000 m
Broken clouds at a height of 1200 ft
mist

METAR: UTTT 170400Z 15004KT 120V200 5000 BR BKN012 04/02 Q1034 R08R/CLRD70 TEMPO 3000 BR SCT003

Time: 09:23 (04:23 UTC)

Forecast

The report was made 5 hours and 23 minutes ago, at 23:00 UTC
Forecast valid from 17 at 00 UTC to 17 at 24 UTC
Wind 12 kt from the West
Visibility: 7000 m
Few clouds at a height of 6000 ft, Cumulonimbus.
Scattered clouds at a height of 10000 ft
Temporary
from 17 at 00 UTC to 17 at 05 UTC
Scattered clouds at a height of 5000 ft, Cumulonimbus.
Overcast at a height of 10000 ft

TAF: UTTT 162300Z 1700/1724 28012KT 7000 FEW060CB SCT100 TEMPO 1700/1705 SCT050CB OVC100

Weather observations and forecasts of more than 4000 airports (METAR and TAF reports).

The available stations are represented by yellow and red dots on the map.

Hover mouse over dot to see the name of the station.

Then click to see weather observations and forecasts.

To change the map : click on the green buttons with a black cross to zoom in, on the green button with a dash to zoom out, or on the green arrows for adjacent maps.


METAR-TAF: